createdAt,value
2018-10-01T00:00:23.525Z,994.71
2018-10-01T00:01:23.516Z,994.68
2018-10-01T00:02:23.509Z,994.66
2018-10-01T00:03:23.558Z,994.71
2018-10-01T00:04:23.522Z,994.74
2018-10-01T00:05:23.471Z,994.73
2018-10-01T00:06:23.458Z,994.72
2018-10-01T00:07:23.452Z,994.77
2018-10-01T00:08:23.447Z,994.75
2018-10-01T00:09:23.453Z,994.72
2018-10-01T00:10:23.419Z,994.68
2018-10-01T00:11:23.402Z,994.68
2018-10-01T00:12:23.397Z,994.69
2018-10-01T00:13:23.384Z,994.68
2018-10-01T00:14:23.392Z,994.68
2018-10-01T00:15:23.358Z,994.64
2018-10-01T00:16:23.350Z,994.65
2018-10-01T00:17:23.362Z,994.64
2018-10-01T00:18:23.332Z,994.65
2018-10-01T00:19:23.322Z,994.64
2018-10-01T00:20:30.908Z,994.64
2018-10-01T00:21:23.319Z,994.64
2018-10-01T00:22:23.278Z,994.65
2018-10-01T00:23:23.294Z,994.62
2018-10-01T00:24:31.286Z,994.62
2018-10-01T00:25:30.972Z,994.63
2018-10-01T00:26:23.261Z,994.60
2018-10-01T00:27:23.224Z,994.61
2018-10-01T00:28:23.211Z,994.58
2018-10-01T00:29:23.245Z,994.56
2018-10-01T00:30:23.190Z,994.51
2018-10-01T00:31:23.182Z,994.50
2018-10-01T00:32:23.165Z,994.50
2018-10-01T00:33:23.158Z,994.44
2018-10-01T00:34:23.180Z,994.49
2018-10-01T00:35:23.138Z,994.48
2018-10-01T00:36:23.174Z,994.47
2018-10-01T00:37:23.124Z,994.43
2018-10-01T00:38:23.163Z,994.44
2018-10-01T00:39:23.119Z,994.34
2018-10-01T00:40:23.171Z,994.29
2018-10-01T00:41:23.067Z,994.31
2018-10-01T00:42:23.135Z,994.30
2018-10-01T00:43:23.043Z,994.32
2018-10-01T00:44:23.486Z,994.37
2018-10-01T00:45:23.066Z,994.34
2018-10-01T00:46:23.126Z,994.31
2018-10-01T00:47:23.025Z,994.30
2018-10-01T00:48:23.126Z,994.25
2018-10-01T00:49:22.979Z,994.26
2018-10-01T00:50:23.249Z,994.24
2018-10-01T00:51:22.975Z,994.24
2018-10-01T00:52:22.942Z,994.23
2018-10-01T00:53:22.934Z,994.22
2018-10-01T00:54:22.953Z,994.20
2018-10-01T00:55:22.908Z,994.16
2018-10-01T00:56:22.922Z,994.22
2018-10-01T00:57:22.886Z,994.21
2018-10-01T00:58:22.883Z,994.22
2018-10-01T00:59:22.868Z,994.18
2018-10-01T01:00:22.875Z,994.20
2018-10-01T01:01:22.843Z,994.20
2018-10-01T01:02:22.829Z,994.20
2018-10-01T01:03:22.817Z,994.17
2018-10-01T01:04:22.810Z,994.17
2018-10-01T01:05:22.832Z,994.21
2018-10-01T01:06:22.785Z,994.24
2018-10-01T01:07:22.773Z,994.28
2018-10-01T01:08:22.767Z,994.27
2018-10-01T01:09:22.755Z,994.24
2018-10-01T01:10:22.766Z,994.31
2018-10-01T01:11:22.743Z,994.33
2018-10-01T01:12:22.716Z,994.34
2018-10-01T01:13:22.728Z,994.35
2018-10-01T01:14:22.720Z,994.41
2018-10-01T01:15:22.689Z,994.42
2018-10-01T01:16:22.673Z,994.45
2018-10-01T01:17:22.671Z,994.47
2018-10-01T01:18:22.650Z,994.49
2018-10-01T01:19:22.667Z,994.50
2018-10-01T01:20:22.631Z,994.53
2018-10-01T01:21:22.629Z,994.54
2018-10-01T01:22:22.611Z,994.54
2018-10-01T01:23:22.618Z,994.52
2018-10-01T01:24:22.581Z,994.51
2018-10-01T01:25:22.596Z,994.53
2018-10-01T01:26:22.563Z,994.49
2018-10-01T01:27:22.554Z,994.53
2018-10-01T01:28:22.569Z,994.51
2018-10-01T01:29:22.532Z,994.47
2018-10-01T01:30:22.515Z,994.49
2018-10-01T01:31:22.528Z,994.51
2018-10-01T01:32:22.495Z,994.56
2018-10-01T01:33:22.486Z,994.55
2018-10-01T01:34:22.476Z,994.51
2018-10-01T01:35:22.463Z,994.49
2018-10-01T01:36:22.498Z,994.49
2018-10-01T01:37:22.441Z,994.46
2018-10-01T01:38:22.429Z,994.43
2018-10-01T01:39:22.416Z,994.49
2018-10-01T01:40:22.423Z,994.49
2018-10-01T01:41:22.428Z,994.49
2018-10-01T01:42:22.381Z,994.43
2018-10-01T01:43:22.372Z,994.45
2018-10-01T01:44:22.368Z,994.40
2018-10-01T01:45:22.347Z,994.38
2018-10-01T01:46:22.367Z,994.36
2018-10-01T01:47:22.370Z,994.36
2018-10-01T01:48:22.318Z,994.31
2018-10-01T01:49:22.301Z,994.33
2018-10-01T01:50:22.289Z,994.37
2018-10-01T01:51:22.290Z,994.37
2018-10-01T01:52:22.399Z,994.30
2018-10-01T01:53:22.257Z,994.34
2018-10-01T01:54:22.244Z,994.38
2018-10-01T01:55:22.237Z,994.37
2018-10-01T01:56:22.228Z,994.33
2018-10-01T01:57:22.242Z,994.31
2018-10-01T01:58:22.199Z,994.31
2018-10-01T01:59:22.191Z,994.27
2018-10-01T02:00:22.179Z,994.27
2018-10-01T02:01:22.173Z,994.25
2018-10-01T02:02:22.181Z,994.25
2018-10-01T02:03:22.160Z,994.24
2018-10-01T02:04:22.135Z,994.26
2018-10-01T02:05:22.124Z,994.25
2018-10-01T02:06:22.135Z,994.25
2018-10-01T02:07:22.100Z,994.31
2018-10-01T02:08:22.105Z,994.27
2018-10-01T02:09:22.076Z,994.23
2018-10-01T02:10:22.066Z,994.21
2018-10-01T02:11:22.077Z,994.17
2018-10-01T02:12:22.046Z,994.13
2018-10-01T02:13:22.032Z,994.21
2018-10-01T02:14:22.057Z,994.23
2018-10-01T02:15:22.013Z,994.25
2018-10-01T02:16:21.997Z,994.22
2018-10-01T02:17:21.989Z,994.19
2018-10-01T02:18:21.979Z,994.12
2018-10-01T02:19:21.993Z,994.14
2018-10-01T02:20:21.957Z,994.16
2018-10-01T02:21:21.974Z,994.15
2018-10-01T02:22:21.929Z,994.13
2018-10-01T02:23:21.921Z,994.16
2018-10-01T02:24:21.917Z,994.13
2018-10-01T02:25:21.903Z,994.15
2018-10-01T02:26:21.912Z,994.13
2018-10-01T02:27:21.873Z,994.14
2018-10-01T02:28:21.865Z,994.11
2018-10-01T02:29:21.850Z,994.08
2018-10-01T02:30:21.841Z,994.08
2018-10-01T02:31:21.843Z,994.05
2018-10-01T02:32:21.821Z,994.06
2018-10-01T02:33:21.816Z,994.05
2018-10-01T02:34:21.828Z,994.00
2018-10-01T02:35:21.785Z,994.00
2018-10-01T02:36:21.793Z,993.99
2018-10-01T02:37:21.769Z,994.02
2018-10-01T02:38:21.751Z,993.98
2018-10-01T02:39:21.762Z,994.02
2018-10-01T02:40:21.726Z,994.04
2018-10-01T02:41:21.749Z,994.06
2018-10-01T02:42:21.706Z,994.08
2018-10-01T02:43:21.701Z,994.11
2018-10-01T02:44:21.712Z,994.04
2018-10-01T02:45:21.684Z,994.10
2018-10-01T02:46:21.659Z,994.06
2018-10-01T02:47:21.661Z,994.01
2018-10-01T02:48:21.680Z,994.06
2018-10-01T02:49:21.635Z,994.05
2018-10-01T02:50:21.618Z,994.03
2018-10-01T02:51:21.604Z,994.05
2018-10-01T02:52:21.591Z,994.07
2018-10-01T02:53:21.604Z,994.09
2018-10-01T02:54:21.589Z,994.06
2018-10-01T02:55:21.589Z,994.06
2018-10-01T02:56:21.567Z,994.03
2018-10-01T02:57:21.536Z,994.02
2018-10-01T02:58:21.523Z,994.01
2018-10-01T02:59:21.513Z,993.97
2018-10-01T03:00:21.525Z,994.03
2018-10-01T03:01:21.497Z,994.02
2018-10-01T03:02:21.488Z,994.03
2018-10-01T03:03:21.472Z,994.02
2018-10-01T03:04:21.490Z,993.97
2018-10-01T03:05:21.450Z,993.95
2018-10-01T03:06:21.448Z,993.99
2018-10-01T03:07:21.429Z,993.97
2018-10-01T03:08:21.416Z,993.95
2018-10-01T03:09:21.470Z,993.97
2018-10-01T03:10:21.416Z,993.97
2018-10-01T03:11:21.386Z,993.98
2018-10-01T03:12:21.430Z,994.05
2018-10-01T03:13:21.360Z,993.97
2018-10-01T03:14:21.368Z,993.98
2018-10-01T03:15:21.340Z,993.95
2018-10-01T03:16:21.327Z,993.94
2018-10-01T03:17:21.339Z,993.91
2018-10-01T03:18:21.301Z,993.91
2018-10-01T03:19:21.289Z,993.95
2018-10-01T03:20:21.308Z,993.93
2018-10-01T03:21:21.350Z,993.93
2018-10-01T03:22:21.254Z,993.89
2018-10-01T03:23:21.268Z,993.91
2018-10-01T03:24:21.237Z,993.89
2018-10-01T03:25:21.228Z,993.89
2018-10-01T03:26:21.238Z,993.89
2018-10-01T03:27:21.207Z,993.84
2018-10-01T03:28:21.193Z,993.79
2018-10-01T03:29:21.183Z,993.81
2018-10-01T03:30:21.171Z,993.86
2018-10-01T03:31:21.177Z,993.91
2018-10-01T03:32:21.148Z,993.87
2018-10-01T03:33:21.153Z,993.88
2018-10-01T03:34:21.127Z,993.83
2018-10-01T03:35:21.110Z,993.81
2018-10-01T03:36:21.103Z,993.83
2018-10-01T03:37:21.098Z,993.83
2018-10-01T03:38:21.105Z,993.82
2018-10-01T03:39:21.067Z,993.83
2018-10-01T03:40:21.100Z,993.86
2018-10-01T03:41:21.064Z,993.86
2018-10-01T03:42:21.035Z,993.89
2018-10-01T03:43:21.050Z,993.91
2018-10-01T03:44:21.007Z,993.88
2018-10-01T03:45:20.999Z,993.84
2018-10-01T03:46:20.992Z,993.85
2018-10-01T03:47:20.975Z,993.83
2018-10-01T03:48:20.987Z,993.88
2018-10-01T03:49:20.954Z,993.95
2018-10-01T03:50:20.951Z,993.99
2018-10-01T03:51:20.937Z,994.02
2018-10-01T03:52:20.939Z,994.06
2018-10-01T03:53:20.949Z,994.07
2018-10-01T03:54:20.901Z,994.04
2018-10-01T03:55:20.890Z,994.03
2018-10-01T03:56:20.873Z,994.00
2018-10-01T03:57:20.891Z,994.01
2018-10-01T03:58:20.850Z,993.99
2018-10-01T03:59:20.843Z,994.00
2018-10-01T04:00:20.853Z,994.02
2018-10-01T04:01:20.821Z,993.96
2018-10-01T04:02:20.806Z,994.00
2018-10-01T04:03:20.807Z,993.97
2018-10-01T04:04:20.813Z,993.96
2018-10-01T04:05:20.771Z,993.92
2018-10-01T04:06:20.761Z,993.86
2018-10-01T04:07:20.751Z,993.88
2018-10-01T04:08:20.772Z,993.89
2018-10-01T04:09:20.750Z,993.83
2018-10-01T04:10:20.716Z,993.87
2018-10-01T04:11:20.727Z,993.81
2018-10-01T04:12:20.692Z,993.88
2018-10-01T04:13:20.688Z,993.87
2018-10-01T04:14:20.696Z,993.94
2018-10-01T04:15:20.668Z,993.96
2018-10-01T04:16:20.647Z,994.01
2018-10-01T04:17:20.658Z,994.02
2018-10-01T04:18:20.630Z,994.03
2018-10-01T04:19:20.643Z,994.01
2018-10-01T04:20:20.623Z,993.99
2018-10-01T04:21:20.597Z,994.02
2018-10-01T04:22:20.581Z,994.03
2018-10-01T04:23:20.576Z,993.99
2018-10-01T04:24:20.560Z,994.00
2018-10-01T04:25:20.573Z,994.05
2018-10-01T04:26:20.545Z,994.09
2018-10-01T04:27:20.528Z,994.07
2018-10-01T04:28:20.658Z,994.05
2018-10-01T04:29:20.499Z,994.08
2018-10-01T04:30:20.521Z,994.05
2018-10-01T04:31:20.481Z,994.08
2018-10-01T04:32:20.478Z,994.10
2018-10-01T04:33:20.458Z,994.08
2018-10-01T04:34:20.475Z,994.11
2018-10-01T04:35:20.449Z,994.15
2018-10-01T04:36:20.430Z,994.18
2018-10-01T04:37:20.440Z,994.18
2018-10-01T04:38:20.401Z,994.20
2018-10-01T04:39:20.390Z,994.22
2018-10-01T04:40:20.383Z,994.22
2018-10-01T04:41:20.365Z,994.16
2018-10-01T04:42:20.377Z,994.16
2018-10-01T04:43:20.350Z,994.15
2018-10-01T04:44:20.332Z,994.19
2018-10-01T04:45:20.353Z,994.17
2018-10-01T04:46:20.324Z,994.18
2018-10-01T04:47:20.323Z,994.15
2018-10-01T04:48:20.287Z,994.18
2018-10-01T04:49:20.282Z,994.15
2018-10-01T04:50:20.263Z,994.18
2018-10-01T04:51:20.254Z,994.24
2018-10-01T04:52:20.266Z,994.24
2018-10-01T04:53:20.239Z,994.18
2018-10-01T04:54:20.249Z,994.15
2018-10-01T04:55:20.219Z,994.22
2018-10-01T04:56:20.230Z,994.21
2018-10-01T04:57:20.208Z,994.22
2018-10-01T04:58:20.302Z,994.24
2018-10-01T04:59:20.191Z,994.25
2018-10-01T05:00:20.153Z,994.27
2018-10-01T05:01:20.169Z,994.23
2018-10-01T05:02:20.133Z,994.25
2018-10-01T05:03:20.121Z,994.30
2018-10-01T05:04:20.119Z,994.29
2018-10-01T05:05:20.137Z,994.32
2018-10-01T05:06:20.102Z,994.36
2018-10-01T05:07:20.078Z,994.34
2018-10-01T05:08:20.070Z,994.38
2018-10-01T05:09:20.062Z,994.41
2018-10-01T05:10:20.065Z,994.40
2018-10-01T05:11:20.085Z,994.39
2018-10-01T05:12:20.040Z,994.37
2018-10-01T05:13:20.044Z,994.41
2018-10-01T05:14:19.999Z,994.38
2018-10-01T05:15:19.988Z,994.35
2018-10-01T05:16:19.979Z,994.44
2018-10-01T05:17:19.972Z,994.40
2018-10-01T05:18:19.998Z,994.40
2018-10-01T05:19:19.942Z,994.37
2018-10-01T05:20:19.944Z,994.40
2018-10-01T05:21:19.920Z,994.40
2018-10-01T05:22:19.925Z,994.38
2018-10-01T05:23:19.931Z,994.39
2018-10-01T05:24:19.893Z,994.42
2018-10-01T05:25:19.874Z,994.38
2018-10-01T05:26:19.869Z,994.35
2018-10-01T05:27:19.855Z,994.36
2018-10-01T05:28:19.867Z,994.35
2018-10-01T05:29:19.853Z,994.36
2018-10-01T05:30:19.814Z,994.39
2018-10-01T05:31:19.840Z,994.41
2018-10-01T05:32:19.796Z,994.43
2018-10-01T05:33:19.785Z,994.43
2018-10-01T05:34:19.805Z,994.42
2018-10-01T05:35:19.765Z,994.44
2018-10-01T05:36:19.789Z,994.45
2018-10-01T05:37:19.736Z,994.46
2018-10-01T05:38:19.725Z,994.49
2018-10-01T05:39:19.716Z,994.51
2018-10-01T05:40:19.718Z,994.53
2018-10-01T05:41:19.726Z,994.49
2018-10-01T05:42:19.679Z,994.52
2018-10-01T05:43:19.688Z,994.51
2018-10-01T05:44:19.683Z,994.55
2018-10-01T05:45:19.655Z,994.59
2018-10-01T05:46:19.662Z,994.58
2018-10-01T05:47:19.624Z,994.60
2018-10-01T05:48:19.650Z,994.54
2018-10-01T05:49:19.612Z,994.48
2018-10-01T05:50:19.593Z,994.51
2018-10-01T05:51:19.579Z,994.55
2018-10-01T05:52:19.643Z,994.53
2018-10-01T05:53:19.558Z,994.51
2018-10-01T05:54:19.566Z,994.54
2018-10-01T05:55:19.534Z,994.55
2018-10-01T05:56:19.526Z,994.58
2018-10-01T05:57:19.511Z,994.61
2018-10-01T05:58:19.537Z,994.61
2018-10-01T05:59:19.488Z,994.61
2018-10-01T06:00:19.480Z,994.62
2018-10-01T06:01:19.471Z,994.63
2018-10-01T06:02:19.461Z,994.69
2018-10-01T06:03:19.470Z,994.68
2018-10-01T06:04:19.434Z,994.70
2018-10-01T06:05:19.422Z,994.73
2018-10-01T06:06:19.419Z,994.73
2018-10-01T06:07:19.401Z,994.72
2018-10-01T06:08:19.419Z,994.80
2018-10-01T06:09:19.378Z,994.74
2018-10-01T06:10:19.371Z,994.75
2018-10-01T06:11:19.353Z,994.76
2018-10-01T06:12:19.343Z,994.76
2018-10-01T06:13:19.359Z,994.74
2018-10-01T06:14:19.323Z,994.75
2018-10-01T06:15:19.317Z,994.79
2018-10-01T06:16:19.299Z,994.74
2018-10-01T06:17:19.329Z,994.75
2018-10-01T06:18:19.351Z,994.82
2018-10-01T06:19:19.266Z,994.79
2018-10-01T06:20:19.260Z,994.77
2018-10-01T06:21:19.249Z,994.78
2018-10-01T06:22:19.231Z,994.78
2018-10-01T06:23:19.248Z,994.80
2018-10-01T06:24:19.207Z,994.79
2018-10-01T06:25:19.332Z,994.86
2018-10-01T06:26:19.185Z,994.85
2018-10-01T06:27:19.196Z,994.82
2018-10-01T06:28:19.169Z,994.85
2018-10-01T06:29:19.177Z,994.86
2018-10-01T06:30:19.140Z,994.90
2018-10-01T06:31:19.132Z,994.89
2018-10-01T06:32:19.125Z,994.88
2018-10-01T06:33:19.109Z,994.93
2018-10-01T06:34:19.132Z,994.91
2018-10-01T06:35:19.085Z,994.92
2018-10-01T06:36:19.143Z,994.90
2018-10-01T06:37:19.061Z,994.90
2018-10-01T06:38:19.063Z,994.91
2018-10-01T06:39:19.175Z,994.91
2018-10-01T06:40:19.027Z,994.88
2018-10-01T06:41:19.046Z,994.85
2018-10-01T06:42:19.006Z,994.89
2018-10-01T06:43:18.994Z,994.94
2018-10-01T06:44:19.005Z,994.91
2018-10-01T06:45:18.976Z,994.91
2018-10-01T06:46:18.962Z,994.94
2018-10-01T06:47:18.952Z,994.97
2018-10-01T06:48:18.946Z,994.92
2018-10-01T06:49:18.955Z,994.97
2018-10-01T06:50:18.913Z,994.98
2018-10-01T06:51:18.993Z,994.97
2018-10-01T06:52:18.890Z,994.99
2018-10-01T06:53:18.883Z,995.00
2018-10-01T06:54:18.909Z,995.07
2018-10-01T06:55:18.879Z,995.08
2018-10-01T06:56:18.845Z,995.06
2018-10-01T06:57:18.839Z,995.10
2018-10-01T06:58:18.827Z,995.14
2018-10-01T06:59:18.838Z,995.12
2018-10-01T07:00:18.801Z,995.13
2018-10-01T07:01:18.846Z,995.16
2018-10-01T07:02:18.779Z,995.20
2018-10-01T07:03:18.767Z,995.24
2018-10-01T07:04:18.787Z,995.26
2018-10-01T07:05:18.789Z,995.24
2018-10-01T07:06:18.736Z,995.22
2018-10-01T07:07:18.731Z,995.22
2018-10-01T07:08:18.713Z,995.22
2018-10-01T07:09:18.700Z,995.25
2018-10-01T07:10:18.827Z,995.24
2018-10-01T07:11:18.780Z,995.24
2018-10-01T07:12:18.683Z,995.26
2018-10-01T07:13:18.655Z,995.25
2018-10-01T07:14:18.645Z,995.28
2018-10-01T07:15:18.659Z,995.27
2018-10-01T07:16:18.633Z,995.30
2018-10-01T07:17:18.808Z,995.29
2018-10-01T07:18:18.600Z,995.25
2018-10-01T07:19:18.587Z,995.32
2018-10-01T07:20:18.581Z,995.31
2018-10-01T07:21:18.564Z,995.31
2018-10-01T07:22:18.585Z,995.29
2018-10-01T07:23:18.729Z,995.37
2018-10-01T07:24:18.538Z,995.37
2018-10-01T07:25:18.521Z,995.40
2018-10-01T07:26:18.532Z,995.37
2018-10-01T07:27:18.503Z,995.39
2018-10-01T07:28:18.506Z,995.41
2018-10-01T07:29:18.477Z,995.40
2018-10-01T07:30:18.480Z,995.42
2018-10-01T07:31:18.480Z,995.42
2018-10-01T07:32:18.440Z,995.45
2018-10-01T07:33:18.429Z,995.42
2018-10-01T07:34:18.430Z,995.43
2018-10-01T07:35:18.418Z,995.46
2018-10-01T07:36:18.424Z,995.41
2018-10-01T07:37:18.386Z,995.48
2018-10-01T07:38:18.374Z,995.49
2018-10-01T07:39:18.373Z,995.55
2018-10-01T07:40:18.380Z,995.53
2018-10-01T07:41:18.364Z,995.60
2018-10-01T07:42:18.370Z,995.58
2018-10-01T07:43:18.320Z,995.62
2018-10-01T07:44:18.307Z,995.62
2018-10-01T07:45:18.481Z,995.66
2018-10-01T07:46:18.381Z,995.66
2018-10-01T07:47:18.322Z,995.69
2018-10-01T07:48:18.268Z,995.69
2018-10-01T07:49:18.289Z,995.68
2018-10-01T07:50:18.240Z,995.68
2018-10-01T07:51:18.252Z,995.72
2018-10-01T07:52:18.253Z,995.71
2018-10-01T07:53:18.248Z,995.69
2018-10-01T07:54:18.201Z,995.77
2018-10-01T07:55:18.190Z,995.71
2018-10-01T07:56:18.179Z,995.68
2018-10-01T07:57:18.210Z,995.71
2018-10-01T07:58:18.149Z,995.76
2018-10-01T07:59:18.138Z,995.73
2018-10-01T08:00:18.156Z,995.80
2018-10-01T08:01:18.113Z,995.74
2018-10-01T08:02:18.185Z,995.77
2018-10-01T08:03:18.097Z,995.78
2018-10-01T08:04:18.091Z,995.78
2018-10-01T08:05:18.073Z,995.75
2018-10-01T08:06:18.075Z,995.74
2018-10-01T08:07:18.077Z,995.82
2018-10-01T08:08:18.142Z,995.83
2018-10-01T08:09:18.090Z,995.77
2018-10-01T08:10:18.026Z,995.80
2018-10-01T08:11:17.999Z,995.78
2018-10-01T08:12:18.014Z,995.75
2018-10-01T08:13:18.005Z,995.78
2018-10-01T08:14:17.980Z,995.80
2018-10-01T08:15:17.984Z,995.79
2018-10-01T08:16:17.943Z,995.78
2018-10-01T08:17:17.932Z,995.79
2018-10-01T08:18:17.928Z,995.81
2018-10-01T08:19:17.936Z,995.76
2018-10-01T08:20:17.946Z,995.80
2018-10-01T08:21:17.893Z,995.78
2018-10-01T08:22:17.873Z,995.80
2018-10-01T08:23:17.879Z,995.83
2018-10-01T08:24:17.973Z,995.79
2018-10-01T08:25:17.843Z,995.78
2018-10-01T08:26:17.884Z,995.80
2018-10-01T08:27:17.816Z,995.81
2018-10-01T08:28:17.810Z,995.87
2018-10-01T08:29:17.895Z,995.90
2018-10-01T08:30:17.788Z,995.92
2018-10-01T08:31:17.772Z,995.99
2018-10-01T08:32:17.844Z,996.00
2018-10-01T08:33:17.780Z,996.05
2018-10-01T08:34:17.738Z,996.05
2018-10-01T08:35:17.762Z,996.09
2018-10-01T08:36:17.715Z,996.06
2018-10-01T08:37:17.706Z,996.05
2018-10-01T08:38:17.789Z,996.03
2018-10-01T08:39:17.684Z,996.03
2018-10-01T08:40:17.712Z,996.03
2018-10-01T08:41:17.677Z,996.08
2018-10-01T08:42:17.673Z,996.08
2018-10-01T08:43:17.640Z,996.14
2018-10-01T08:44:17.634Z,996.13
2018-10-01T08:45:17.612Z,996.11
2018-10-01T08:46:17.627Z,996.15
2018-10-01T08:47:17.764Z,996.16
2018-10-01T08:48:17.578Z,996.19
2018-10-01T08:49:17.570Z,996.18
2018-10-01T08:50:17.575Z,996.20
2018-10-01T08:51:17.594Z,996.20
2018-10-01T08:52:17.539Z,996.23
2018-10-01T08:53:17.567Z,996.21
2018-10-01T08:54:17.511Z,996.22
2018-10-01T08:55:17.501Z,996.26
2018-10-01T08:56:17.561Z,996.25
2018-10-01T08:57:17.523Z,996.24
2018-10-01T08:58:17.464Z,996.17
2018-10-01T08:59:17.510Z,996.17
2018-10-01T09:00:17.445Z,996.24
2018-10-01T09:01:17.457Z,996.20
2018-10-01T09:02:17.554Z,996.20
2018-10-01T09:03:17.422Z,996.15
2018-10-01T09:04:17.398Z,996.17
2018-10-01T09:05:17.408Z,996.17
2018-10-01T09:06:17.380Z,996.15
2018-10-01T09:07:17.406Z,996.18
2018-10-01T09:08:17.403Z,996.15
2018-10-01T09:09:17.341Z,996.09
2018-10-01T09:10:17.329Z,996.16
2018-10-01T09:11:17.336Z,996.11
2018-10-01T09:12:17.335Z,996.14
2018-10-01T09:13:17.300Z,996.10
2018-10-01T09:14:17.337Z,996.16
2018-10-01T09:15:17.289Z,996.13
2018-10-01T09:16:17.291Z,996.11
2018-10-01T09:17:17.261Z,996.17
2018-10-01T09:18:17.247Z,996.18
2018-10-01T09:19:17.258Z,996.19
2018-10-01T09:20:17.270Z,996.19
2018-10-01T09:21:17.361Z,996.21
2018-10-01T09:22:17.200Z,996.15
2018-10-01T09:23:17.189Z,996.16
2018-10-01T09:24:17.198Z,996.18
2018-10-01T09:25:17.169Z,996.19
2018-10-01T09:26:17.313Z,996.17
2018-10-01T09:27:17.139Z,996.24
2018-10-01T09:28:17.152Z,996.18
2018-10-01T09:29:17.214Z,996.20
2018-10-01T09:30:17.131Z,996.16
2018-10-01T09:31:17.099Z,996.14
2018-10-01T09:32:17.164Z,996.18
2018-10-01T09:33:17.074Z,996.13
2018-10-01T09:34:17.088Z,996.11
2018-10-01T09:35:17.193Z,996.14
2018-10-01T09:36:17.041Z,996.09
2018-10-01T09:37:17.026Z,996.08
2018-10-01T09:38:17.066Z,995.98
2018-10-01T09:39:17.041Z,995.99
2018-10-01T09:40:17.060Z,996.00
2018-10-01T09:41:16.992Z,995.98
2018-10-01T09:42:16.984Z,996.03
2018-10-01T09:43:16.960Z,996.05
2018-10-01T09:44:17.042Z,996.05
2018-10-01T09:45:16.935Z,996.04
2018-10-01T09:46:16.974Z,996.08
2018-10-01T09:47:16.920Z,996.10
2018-10-01T09:48:16.907Z,996.08
2018-10-01T09:49:16.920Z,996.07
2018-10-01T09:50:16.942Z,996.08
2018-10-01T09:51:16.892Z,996.13
2018-10-01T09:52:16.889Z,996.07
2018-10-01T09:53:16.863Z,996.03
2018-10-01T09:54:16.880Z,995.95
2018-10-01T09:55:16.825Z,995.98
2018-10-01T09:56:16.871Z,995.99
2018-10-01T09:57:16.798Z,996.07
2018-10-01T09:58:16.944Z,996.02
2018-10-01T09:59:16.784Z,996.06
2018-10-01T10:00:16.788Z,996.06
2018-10-01T10:01:16.787Z,996.06
2018-10-01T10:02:16.982Z,996.06
2018-10-01T10:03:16.735Z,996.05
2018-10-01T10:04:16.755Z,996.04
2018-10-01T10:05:16.709Z,996.05
2018-10-01T10:06:16.751Z,996.05
2018-10-01T10:07:16.685Z,996.13
2018-10-01T10:08:16.818Z,996.11
2018-10-01T10:09:16.667Z,996.02
2018-10-01T10:10:16.663Z,996.10
2018-10-01T10:11:16.733Z,996.00
2018-10-01T10:12:16.665Z,996.03
2018-10-01T10:13:16.618Z,995.95
2018-10-01T10:14:16.704Z,995.96
2018-10-01T10:15:16.605Z,996.00
2018-10-01T10:16:16.691Z,996.00
2018-10-01T10:17:16.576Z,995.98
2018-10-01T10:18:16.574Z,996.03
2018-10-01T10:19:16.576Z,996.06
2018-10-01T10:20:16.541Z,996.04
2018-10-01T10:21:16.544Z,996.01
2018-10-01T10:22:16.569Z,996.01
2018-10-01T10:23:16.509Z,996.01
2018-10-01T10:24:16.516Z,995.97
2018-10-01T10:25:16.488Z,996.01
2018-10-01T10:26:16.567Z,995.97
2018-10-01T10:27:16.497Z,995.98
2018-10-01T10:28:16.487Z,996.03
2018-10-01T10:29:16.471Z,996.08
2018-10-01T10:30:16.433Z,996.10
2018-10-01T10:31:16.418Z,996.09
2018-10-01T10:32:16.457Z,996.07
2018-10-01T10:33:16.424Z,996.17
2018-10-01T10:34:16.585Z,996.20
2018-10-01T10:35:16.425Z,996.13
2018-10-01T10:36:16.358Z,996.12
2018-10-01T10:37:16.348Z,996.18
2018-10-01T10:38:16.454Z,996.11
2018-10-01T10:39:16.342Z,996.14
2018-10-01T10:40:16.320Z,996.13
2018-10-01T10:41:16.303Z,996.12
2018-10-01T10:42:16.301Z,996.16
2018-10-01T10:43:16.311Z,996.17
2018-10-01T10:44:16.340Z,996.16
2018-10-01T10:45:16.260Z,996.16
2018-10-01T10:46:16.252Z,996.21
2018-10-01T10:47:16.238Z,996.13
2018-10-01T10:48:16.344Z,996.13
2018-10-01T10:49:16.214Z,996.18
2018-10-01T10:50:16.270Z,996.11
2018-10-01T10:51:16.191Z,996.14
2018-10-01T10:52:16.184Z,996.15
2018-10-01T10:53:16.196Z,996.24
2018-10-01T10:54:16.174Z,996.19
2018-10-01T10:55:16.175Z,996.23
2018-10-01T10:56:16.231Z,996.28
2018-10-01T10:57:16.130Z,996.29
2018-10-01T10:58:16.192Z,996.24
2018-10-01T10:59:16.129Z,996.32
2018-10-01T11:00:16.090Z,996.31
2018-10-01T11:01:16.092Z,996.30
2018-10-01T11:02:16.196Z,996.19
2018-10-01T11:03:16.080Z,996.19
2018-10-01T11:04:16.042Z,996.18
2018-10-01T11:05:16.040Z,996.11
2018-10-01T11:06:16.043Z,996.07
2018-10-01T11:07:16.168Z,996.09
2018-10-01T11:08:16.110Z,996.15
2018-10-01T11:09:15.986Z,996.13
2018-10-01T11:10:15.978Z,996.08
2018-10-01T11:11:15.968Z,996.12
2018-10-01T11:12:15.952Z,996.08
2018-10-01T11:13:15.966Z,996.17
2018-10-01T11:14:16.073Z,996.16
2018-10-01T11:15:16.271Z,996.20
2018-10-01T11:16:15.906Z,996.22
2018-10-01T11:17:15.961Z,996.20
2018-10-01T11:18:15.949Z,996.26
2018-10-01T11:19:16.102Z,996.25
2018-10-01T11:20:15.901Z,996.33
2018-10-01T11:21:15.991Z,996.29
2018-10-01T11:22:15.894Z,996.36
2018-10-01T11:23:15.885Z,996.33
2018-10-01T11:24:15.848Z,996.30
2018-10-01T11:25:15.834Z,996.34
2018-10-01T11:26:15.795Z,996.36
2018-10-01T11:27:15.798Z,996.42
2018-10-01T11:28:15.775Z,996.41
2018-10-01T11:29:15.785Z,996.37
2018-10-01T11:30:15.748Z,996.37
2018-10-01T11:31:15.741Z,996.36
2018-10-01T11:32:15.732Z,996.37
2018-10-01T11:33:15.836Z,996.38
2018-10-01T11:34:15.740Z,996.37
2018-10-01T11:35:15.972Z,996.40
2018-10-01T11:36:15.683Z,996.38
2018-10-01T11:37:15.673Z,996.40
2018-10-01T11:38:15.683Z,996.39
2018-10-01T11:39:15.811Z,996.39
2018-10-01T11:40:15.661Z,996.36
2018-10-01T11:41:15.629Z,996.36
2018-10-01T11:42:15.620Z,996.39
2018-10-01T11:43:15.641Z,996.36
2018-10-01T11:44:15.612Z,996.33
2018-10-01T11:45:15.659Z,996.36
2018-10-01T11:46:15.573Z,996.29
2018-10-01T11:47:15.574Z,996.25
2018-10-01T11:48:15.584Z,996.22
2018-10-01T11:49:15.582Z,996.28
2018-10-01T11:50:15.521Z,996.22
2018-10-01T11:51:15.624Z,996.29
2018-10-01T11:52:15.501Z,996.28
2018-10-01T11:53:15.490Z,996.24
2018-10-01T11:54:15.566Z,996.24
2018-10-01T11:55:15.466Z,996.24
2018-10-01T11:56:15.455Z,996.28
2018-10-01T11:57:15.490Z,996.18
2018-10-01T11:58:15.434Z,996.19
2018-10-01T11:59:15.497Z,996.14
2018-10-01T12:00:15.434Z,996.17
2018-10-01T12:01:15.399Z,996.13
2018-10-01T12:02:15.389Z,996.11
2018-10-01T12:03:15.443Z,996.09
2018-10-01T12:04:15.478Z,996.11
2018-10-01T12:05:15.393Z,996.05
2018-10-01T12:06:15.344Z,996.03
2018-10-01T12:07:15.366Z,996.02
2018-10-01T12:08:15.326Z,996.05
2018-10-01T12:09:15.351Z,996.02
2018-10-01T12:10:15.380Z,995.94
2018-10-01T12:11:15.288Z,996.01
2018-10-01T12:12:15.292Z,995.90
2018-10-01T12:13:15.277Z,995.94
2018-10-01T12:14:15.253Z,995.93
2018-10-01T12:15:15.380Z,995.99
2018-10-01T12:16:15.331Z,996.01
2018-10-01T12:17:15.220Z,995.94
2018-10-01T12:18:15.217Z,995.95
2018-10-01T12:19:15.210Z,995.98
2018-10-01T12:20:15.215Z,995.97
2018-10-01T12:21:15.276Z,995.92
2018-10-01T12:22:15.238Z,995.95
2018-10-01T12:23:15.176Z,996.01
2018-10-01T12:24:15.149Z,995.97
2018-10-01T12:25:15.131Z,995.98
2018-10-01T12:26:15.124Z,995.91
2018-10-01T12:27:15.233Z,995.99
2018-10-01T12:28:15.131Z,995.98